createdAt,value
2023-05-07T00:01:50.898Z,19.80
2023-05-07T00:04:42.104Z,19.63
2023-05-07T00:07:30.705Z,22.33
2023-05-07T00:10:19.429Z,26.70
2023-05-07T00:13:08.209Z,20.73
2023-05-07T00:15:58.894Z,19.83
2023-05-07T00:18:47.359Z,20.73
2023-05-07T00:21:36.830Z,24.93
2023-05-07T00:24:25.875Z,22.03
2023-05-07T00:27:14.367Z,21.03
2023-05-07T00:30:02.984Z,23.40
2023-05-07T00:32:53.073Z,23.93
2023-05-07T00:35:41.534Z,19.57
2023-05-07T00:38:30.089Z,17.50
2023-05-07T00:41:18.713Z,19.10
2023-05-07T00:44:08.061Z,21.20
2023-05-07T00:46:57.057Z,19.57
2023-05-07T00:49:48.412Z,18.37
2023-05-07T00:52:37.219Z,16.57
2023-05-07T00:55:26.612Z,20.00
2023-05-07T00:58:15.246Z,17.95
2023-05-07T01:01:04.351Z,17.90
2023-05-07T01:03:53.212Z,19.33
2023-05-07T01:06:44.077Z,20.30
2023-05-07T01:09:36.824Z,19.63
2023-05-07T01:12:26.477Z,17.80
2023-05-07T01:15:15.452Z,16.53
2023-05-07T01:18:04.282Z,15.80
2023-05-07T01:20:53.114Z,20.73
2023-05-07T01:23:44.836Z,21.13
2023-05-07T01:26:33.386Z,21.00
2023-05-07T01:29:22.228Z,17.13
2023-05-07T01:32:12.637Z,19.73
2023-05-07T01:35:03.410Z,18.50
2023-05-07T01:37:53.522Z,20.97
2023-05-07T01:40:43.817Z,27.53
2023-05-07T01:43:33.437Z,21.30
2023-05-07T01:46:22.501Z,22.00
2023-05-07T01:49:11.563Z,18.30
2023-05-07T01:52:01.036Z,15.53
2023-05-07T01:54:49.520Z,18.00
2023-05-07T01:57:39.501Z,16.50
2023-05-07T02:00:28.490Z,17.10
2023-05-07T02:03:17.020Z,16.77
2023-05-07T02:06:05.890Z,20.53
2023-05-07T02:08:54.690Z,18.00
2023-05-07T02:11:43.748Z,16.77
2023-05-07T02:14:33.573Z,19.23
2023-05-07T02:17:22.498Z,16.37
2023-05-07T02:20:14.569Z,18.23
2023-05-07T02:23:03.301Z,17.17
2023-05-07T02:25:51.699Z,17.97
2023-05-07T02:28:41.327Z,18.23
2023-05-07T02:31:31.281Z,22.50
2023-05-07T02:34:19.826Z,20.23
2023-05-07T02:37:08.272Z,20.43
2023-05-07T02:39:56.754Z,17.80
2023-05-07T02:42:45.223Z,18.23
2023-05-07T02:45:33.987Z,18.73
2023-05-07T02:48:24.141Z,18.50
2023-05-07T02:51:12.673Z,16.50
2023-05-07T02:54:02.168Z,23.27
2023-05-07T02:56:50.678Z,16.67
2023-05-07T02:59:39.376Z,20.10
2023-05-07T03:02:27.789Z,16.33
2023-05-07T03:05:18.872Z,22.10
2023-05-07T03:08:08.212Z,16.37
2023-05-07T03:10:56.701Z,17.67
2023-05-07T03:13:45.420Z,16.60
2023-05-07T03:16:34.214Z,18.50
2023-05-07T03:19:22.839Z,14.40
2023-05-07T03:22:12.767Z,18.73
2023-05-07T03:25:01.823Z,20.07
2023-05-07T03:27:50.212Z,14.20
2023-05-07T03:30:38.536Z,13.47
2023-05-07T03:33:29.123Z,16.50
2023-05-07T03:36:17.579Z,17.80
2023-05-07T03:39:07.435Z,15.37
2023-05-07T03:41:56.126Z,15.37
2023-05-07T03:44:44.969Z,14.50
2023-05-07T03:47:33.757Z,15.50
2023-05-07T03:50:22.396Z,16.03
2023-05-07T03:53:11.132Z,17.70
2023-05-07T03:56:01.226Z,19.53
2023-05-07T03:58:50.041Z,20.07
2023-05-07T04:01:39.392Z,14.73
2023-05-07T04:04:28.872Z,16.10
2023-05-07T04:07:17.423Z,14.47
2023-05-07T04:10:06.546Z,20.30
2023-05-07T04:12:56.447Z,15.15
2023-05-07T04:15:44.844Z,15.80
2023-05-07T04:18:33.504Z,22.43
2023-05-07T04:21:23.152Z,15.70
2023-05-07T04:24:11.591Z,20.03
2023-05-07T04:27:01.003Z,20.73
2023-05-07T04:29:51.173Z,16.83
2023-05-07T04:32:40.228Z,13.80
2023-05-07T04:35:28.985Z,13.07
2023-05-07T04:38:17.594Z,16.40
2023-05-07T04:41:07.590Z,11.63
2023-05-07T04:43:56.580Z,13.00
2023-05-07T04:46:46.659Z,16.08
2023-05-07T04:49:35.379Z,12.20
2023-05-07T04:52:25.327Z,12.93
2023-05-07T04:55:15.972Z,10.90
2023-05-07T04:58:06.014Z,11.90
2023-05-07T05:00:54.496Z,10.33
2023-05-07T05:03:44.975Z,12.83
2023-05-07T05:06:33.676Z,12.13
2023-05-07T05:09:22.203Z,10.20
2023-05-07T05:12:10.679Z,12.00
2023-05-07T05:14:59.137Z,11.57
2023-05-07T05:17:47.787Z,10.43
2023-05-07T05:20:37.975Z,14.40
2023-05-07T05:23:26.708Z,11.00
2023-05-07T05:26:16.284Z,12.50
2023-05-07T05:29:05.008Z,14.73
2023-05-07T05:31:53.874Z,17.63
2023-05-07T05:34:42.634Z,12.67
2023-05-07T05:37:32.581Z,16.40
2023-05-07T05:40:21.630Z,10.37
2023-05-07T05:43:10.173Z,9.90
2023-05-07T05:45:59.916Z,11.00
2023-05-07T05:48:48.497Z,9.20
2023-05-07T05:51:36.910Z,9.73
2023-05-07T05:54:27.036Z,11.40
2023-05-07T05:57:15.535Z,10.63
2023-05-07T06:00:05.580Z,11.37
2023-05-07T06:02:55.731Z,10.90
2023-05-07T06:05:44.227Z,14.00
2023-05-07T06:08:34.341Z,12.43
2023-05-07T06:11:24.420Z,15.00
2023-05-07T06:14:12.909Z,9.90
2023-05-07T06:17:01.509Z,11.73
2023-05-07T06:19:50.350Z,9.60
2023-05-07T06:22:39.419Z,11.90
2023-05-07T06:25:28.055Z,12.47
2023-05-07T06:28:18.109Z,12.63
2023-05-07T06:31:17.080Z,10.40
2023-05-07T06:34:06.286Z,9.40
2023-05-07T06:36:54.771Z,10.50
2023-05-07T06:39:43.266Z,14.90
2023-05-07T06:42:31.985Z,9.80
2023-05-07T06:45:21.981Z,14.70
2023-05-07T06:48:10.836Z,9.20
2023-05-07T06:50:59.788Z,9.20
2023-05-07T06:53:51.145Z,10.47
2023-05-07T06:56:39.906Z,12.13
2023-05-07T06:59:28.900Z,11.83
2023-05-07T07:02:18.899Z,11.33
2023-05-07T07:05:09.705Z,9.20
2023-05-07T07:07:58.311Z,9.13
2023-05-07T07:10:47.023Z,8.77
2023-05-07T07:13:35.969Z,8.98
2023-05-07T07:16:24.965Z,6.80
2023-05-07T07:19:16.305Z,10.13
2023-05-07T07:22:04.990Z,9.10
2023-05-07T07:24:54.432Z,13.53
2023-05-07T07:27:42.843Z,11.77
2023-05-07T07:30:31.477Z,7.27
2023-05-07T07:33:19.841Z,6.43
2023-05-07T07:36:10.072Z,8.33
2023-05-07T07:38:58.555Z,5.13
2023-05-07T07:41:47.040Z,5.83
2023-05-07T07:44:38.180Z,5.30
2023-05-07T07:47:26.783Z,5.00
2023-05-07T07:50:24.346Z,9.93
2023-05-07T07:53:26.427Z,4.80
2023-05-07T07:56:15.268Z,5.93
2023-05-07T07:59:04.425Z,4.87
2023-05-07T08:01:55.607Z,4.83
2023-05-07T08:04:45.675Z,7.60
2023-05-07T08:07:34.276Z,4.30
2023-05-07T08:10:24.439Z,5.60
2023-05-07T08:13:13.228Z,4.60
2023-05-07T08:16:01.630Z,5.20
2023-05-07T08:18:50.863Z,3.80
2023-05-07T08:21:42.180Z,3.83
2023-05-07T08:24:31.677Z,3.43
2023-05-07T08:27:21.582Z,3.93
2023-05-07T08:30:11.586Z,4.23
2023-05-07T08:33:00.294Z,4.10
2023-05-07T08:35:48.670Z,4.13
2023-05-07T08:38:37.345Z,4.57
2023-05-07T08:41:27.008Z,4.00
2023-05-07T08:44:19.291Z,5.30
2023-05-07T08:47:09.428Z,3.90
2023-05-07T08:49:57.884Z,3.40
2023-05-07T08:52:46.398Z,3.60
2023-05-07T08:55:35.113Z,3.60
2023-05-07T08:58:23.958Z,3.73
2023-05-07T09:01:16.726Z,3.60
2023-05-07T09:04:06.799Z,4.00
2023-05-07T09:06:57.320Z,4.17
2023-05-07T09:09:46.947Z,4.93
2023-05-07T09:12:36.837Z,3.30
2023-05-07T09:15:26.156Z,5.53
2023-05-07T09:18:17.484Z,3.87
2023-05-07T09:21:06.283Z,4.90
2023-05-07T09:23:57.421Z,11.43
2023-05-07T09:26:48.286Z,3.80
2023-05-07T09:29:37.371Z,5.13
2023-05-07T09:32:28.457Z,3.90
2023-05-07T09:35:19.780Z,6.87
2023-05-07T09:38:10.437Z,5.07
2023-05-07T09:41:06.390Z,3.50
2023-05-07T09:43:56.990Z,4.30
2023-05-07T09:46:46.238Z,7.13
2023-05-07T09:49:38.707Z,4.90
2023-05-07T09:52:34.529Z,4.30
2023-05-07T09:55:23.761Z,3.20
2023-05-07T09:58:15.053Z,3.80
2023-05-07T10:01:05.338Z,3.60
2023-05-07T10:03:56.026Z,3.97
2023-05-07T10:06:45.865Z,3.20
2023-05-07T10:09:39.867Z,3.30
2023-05-07T10:12:31.051Z,2.80
2023-05-07T10:15:20.420Z,2.80
2023-05-07T10:18:11.441Z,2.70
2023-05-07T10:21:04.881Z,3.10
2023-05-07T10:23:58.847Z,3.80
2023-05-07T10:26:52.073Z,2.47
2023-05-07T10:29:53.165Z,4.93
2023-05-07T10:32:44.970Z,1.80
2023-05-07T10:35:38.291Z,2.60
2023-05-07T10:38:27.588Z,6.23
2023-05-07T10:41:19.904Z,5.33
2023-05-07T10:44:09.940Z,7.30
2023-05-07T10:47:10.629Z,2.93
2023-05-07T10:50:24.853Z,2.80
2023-05-07T10:53:30.099Z,2.57
2023-05-07T10:56:31.516Z,2.40
2023-05-07T10:59:46.841Z,3.03
2023-05-07T11:03:09.642Z,2.37
2023-05-07T11:06:15.486Z,4.03
2023-05-07T11:09:06.201Z,6.53
2023-05-07T11:11:56.929Z,2.27
2023-05-07T11:14:47.554Z,2.27
2023-05-07T11:17:37.806Z,3.73
2023-05-07T11:20:47.370Z,2.10
2023-05-07T11:24:04.768Z,2.90
2023-05-07T11:26:54.343Z,4.30
2023-05-07T11:29:51.085Z,5.47
2023-05-07T11:32:40.016Z,3.73
2023-05-07T11:35:28.991Z,12.30
2023-05-07T11:38:18.409Z,3.40
2023-05-07T11:41:07.275Z,2.90
2023-05-07T11:44:00.840Z,7.10
2023-05-07T11:46:51.402Z,4.50
2023-05-07T11:49:40.150Z,2.43
2023-05-07T11:52:29.231Z,2.60
2023-05-07T11:55:21.203Z,2.77
2023-05-07T11:58:11.674Z,2.80
2023-05-07T12:01:00.793Z,3.83
2023-05-07T12:03:50.937Z,2.93
2023-05-07T12:06:41.633Z,12.70
2023-05-07T12:09:31.052Z,2.67
2023-05-07T12:12:20.026Z,3.73
2023-05-07T12:15:10.563Z,2.40
2023-05-07T12:17:59.370Z,3.90
2023-05-07T12:20:50.293Z,3.47
2023-05-07T12:23:39.894Z,6.00
2023-05-07T12:26:28.615Z,2.30
2023-05-07T12:29:17.621Z,2.43
2023-05-07T12:32:07.370Z,8.97
2023-05-07T12:34:56.204Z,2.03
2023-05-07T12:37:47.522Z,4.30
2023-05-07T12:40:42.925Z,3.23
2023-05-07T12:43:32.315Z,4.80
2023-05-07T12:46:21.348Z,3.13
2023-05-07T12:49:10.322Z,3.00
2023-05-07T12:51:58.833Z,2.40
2023-05-07T12:54:50.394Z,2.57
2023-05-07T12:57:45.295Z,3.10
2023-05-07T13:00:38.623Z,3.40
2023-05-07T13:03:30.190Z,3.40
2023-05-07T13:06:21.327Z,5.13
2023-05-07T13:09:10.674Z,3.83
2023-05-07T13:12:02.522Z,3.40
2023-05-07T13:14:51.149Z,2.83
2023-05-07T13:17:39.742Z,2.33
2023-05-07T13:20:28.432Z,1.87
2023-05-07T13:23:17.829Z,2.07
2023-05-07T13:26:18.459Z,1.93
2023-05-07T13:29:17.110Z,4.80
2023-05-07T13:32:06.455Z,2.47
2023-05-07T13:34:54.797Z,2.57
2023-05-07T13:37:43.743Z,3.13
2023-05-07T13:40:32.653Z,3.10
2023-05-07T13:43:21.761Z,1.90
2023-05-07T13:46:11.747Z,3.00
2023-05-07T13:49:01.661Z,2.20
2023-05-07T13:51:51.663Z,2.57
2023-05-07T13:54:41.067Z,3.27
2023-05-07T13:57:29.427Z,3.00
2023-05-07T14:00:18.122Z,4.67
2023-05-07T14:03:08.303Z,2.00
2023-05-07T14:05:59.780Z,3.10
2023-05-07T14:08:48.870Z,3.03
2023-05-07T14:11:37.251Z,4.27
2023-05-07T14:14:25.783Z,3.63
2023-05-07T14:17:14.223Z,4.50
2023-05-07T14:20:04.572Z,2.43
2023-05-07T14:22:53.283Z,2.30
2023-05-07T14:25:42.119Z,9.60
2023-05-07T14:28:30.732Z,2.93
2023-05-07T14:31:19.193Z,6.03
2023-05-07T14:34:07.663Z,2.60
2023-05-07T14:36:57.638Z,4.60
2023-05-07T14:39:49.962Z,4.20
2023-05-07T14:42:39.224Z,5.53
2023-05-07T14:45:28.023Z,2.20
2023-05-07T14:48:16.482Z,6.00
2023-05-07T14:51:07.540Z,3.30
2023-05-07T14:53:57.431Z,2.30
2023-05-07T14:56:46.072Z,6.07
2023-05-07T14:59:34.671Z,3.30
2023-05-07T15:02:23.752Z,2.30
2023-05-07T15:05:12.742Z,3.07
2023-05-07T15:08:02.744Z,2.50
2023-05-07T15:10:52.793Z,2.30
2023-05-07T15:13:41.316Z,2.23
2023-05-07T15:16:30.123Z,3.40
2023-05-07T15:19:18.616Z,7.23
2023-05-07T15:22:07.268Z,2.20
2023-05-07T15:24:58.075Z,2.77
2023-05-07T15:27:47.854Z,1.80
2023-05-07T15:30:36.788Z,2.40
2023-05-07T15:33:27.266Z,2.73
2023-05-07T15:36:15.789Z,1.60
2023-05-07T15:39:05.815Z,2.00
2023-05-07T15:41:54.750Z,4.43
2023-05-07T15:44:45.054Z,2.10
2023-05-07T15:47:39.547Z,4.40
2023-05-07T15:50:29.695Z,3.73
2023-05-07T15:53:21.304Z,3.13
2023-05-07T15:56:10.762Z,2.00
2023-05-07T15:58:59.907Z,7.37
2023-05-07T16:01:50.067Z,3.30
2023-05-07T16:04:38.693Z,1.97
2023-05-07T16:07:30.187Z,2.20
2023-05-07T16:10:19.765Z,2.47
2023-05-07T16:13:09.593Z,2.47
2023-05-07T16:15:59.556Z,3.00
2023-05-07T16:18:49.415Z,6.57
2023-05-07T16:21:38.304Z,3.57
2023-05-07T16:24:29.401Z,3.23
2023-05-07T16:27:18.386Z,2.60
2023-05-07T16:30:08.801Z,2.20
2023-05-07T16:32:57.533Z,2.30
2023-05-07T16:35:53.571Z,2.50
2023-05-07T16:38:42.152Z,4.80
2023-05-07T16:41:30.640Z,3.80
2023-05-07T16:44:19.793Z,2.33
2023-05-07T16:47:08.662Z,2.60
2023-05-07T16:49:57.147Z,2.77
2023-05-07T16:52:50.036Z,2.90
2023-05-07T16:55:39.964Z,4.33
2023-05-07T16:58:28.785Z,3.10
2023-05-07T17:01:20.850Z,2.30
2023-05-07T17:04:09.592Z,3.03
2023-05-07T17:06:58.221Z,2.67
2023-05-07T17:09:48.166Z,3.40
2023-05-07T17:12:38.166Z,3.77
2023-05-07T17:15:27.087Z,2.90
2023-05-07T17:18:15.640Z,3.27
2023-05-07T17:21:04.172Z,2.33
2023-05-07T17:23:52.597Z,4.60
2023-05-07T17:26:43.908Z,2.80
2023-05-07T17:29:32.493Z,3.20
2023-05-07T17:32:21.030Z,2.70
2023-05-07T17:35:10.283Z,2.23
2023-05-07T17:38:00.074Z,2.73
2023-05-07T17:40:48.619Z,3.93
2023-05-07T17:43:38.523Z,3.57
2023-05-07T17:46:30.422Z,2.50
2023-05-07T17:49:21.269Z,2.77
2023-05-07T17:52:10.057Z,4.27
2023-05-07T17:54:58.714Z,2.20
2023-05-07T17:57:50.614Z,2.43
2023-05-07T18:00:40.942Z,2.20
2023-05-07T18:03:30.832Z,2.50
2023-05-07T18:06:21.437Z,3.20
2023-05-07T18:09:11.418Z,2.60
2023-05-07T18:12:00.176Z,3.90
2023-05-07T18:14:48.636Z,4.67
2023-05-07T18:17:39.213Z,3.50
2023-05-07T18:20:28.076Z,2.70
2023-05-07T18:23:16.710Z,3.30
2023-05-07T18:26:08.328Z,4.60
2023-05-07T18:28:57.138Z,3.40
2023-05-07T18:31:45.949Z,5.60
2023-05-07T18:34:35.938Z,5.60
2023-05-07T18:37:26.773Z,3.57
2023-05-07T18:40:15.825Z,5.43
2023-05-07T18:43:07.249Z,3.00
2023-05-07T18:45:58.464Z,4.43
2023-05-07T18:48:47.205Z,3.00
2023-05-07T18:51:37.190Z,3.20
2023-05-07T18:54:26.818Z,3.43
2023-05-07T18:57:16.910Z,4.30
2023-05-07T19:00:07.597Z,2.20
2023-05-07T19:02:56.682Z,2.70
2023-05-07T19:05:47.546Z,4.30
2023-05-07T19:08:38.073Z,2.93
2023-05-07T19:11:27.276Z,4.30
2023-05-07T19:14:16.151Z,3.03
2023-05-07T19:17:06.241Z,2.60
2023-05-07T19:19:56.694Z,3.30
2023-05-07T19:22:46.121Z,2.40
2023-05-07T19:25:36.222Z,2.83
2023-05-07T19:28:26.408Z,2.80
2023-05-07T19:31:21.483Z,3.20
2023-05-07T19:34:10.323Z,5.77
2023-05-07T19:36:58.909Z,3.40
2023-05-07T19:39:48.205Z,3.57
2023-05-07T19:42:39.366Z,2.80
2023-05-07T19:45:30.249Z,3.80
2023-05-07T19:48:20.891Z,2.67
2023-05-07T19:51:12.586Z,6.83
2023-05-07T19:54:01.539Z,10.43
2023-05-07T19:56:50.970Z,4.93
2023-05-07T19:59:41.782Z,4.40
2023-05-07T20:02:30.948Z,4.40
2023-05-07T20:05:19.919Z,3.20
2023-05-07T20:08:08.767Z,5.03
2023-05-07T20:11:00.555Z,4.10
2023-05-07T20:13:49.257Z,4.30
2023-05-07T20:16:39.571Z,9.63
2023-05-07T20:19:28.272Z,8.40
2023-05-07T20:22:17.296Z,3.97
2023-05-07T20:25:07.206Z,4.27
2023-05-07T20:27:55.651Z,4.23
2023-05-07T20:30:44.287Z,4.73
2023-05-07T20:33:34.652Z,4.20
2023-05-07T20:36:26.065Z,3.63
2023-05-07T20:39:16.079Z,3.77
2023-05-07T20:42:04.717Z,5.50
2023-05-07T20:45:08.222Z,4.47
2023-05-07T20:47:56.669Z,4.03
2023-05-07T20:50:46.502Z,12.03
2023-05-07T20:53:40.693Z,4.67
2023-05-07T20:56:29.163Z,5.70
2023-05-07T20:59:17.746Z,6.53
2023-05-07T21:02:06.157Z,4.23
2023-05-07T21:04:55.278Z,5.23
2023-05-07T21:07:45.278Z,4.47
2023-05-07T21:10:35.169Z,5.00
2023-05-07T21:13:24.183Z,4.47
2023-05-07T21:16:12.761Z,4.40
2023-05-07T21:19:01.171Z,7.77
2023-05-07T21:21:50.263Z,5.33
2023-05-07T21:24:41.510Z,7.70
2023-05-07T21:27:30.344Z,5.90
2023-05-07T21:30:19.147Z,6.30
2023-05-07T21:33:08.893Z,6.90
2023-05-07T21:35:57.512Z,5.63
2023-05-07T21:38:46.215Z,5.43
2023-05-07T21:41:36.506Z,6.70
2023-05-07T21:44:25.204Z,6.53
2023-05-07T21:47:13.614Z,6.90
2023-05-07T21:50:03.106Z,6.60
2023-05-07T21:52:51.574Z,5.23
2023-05-07T21:55:40.457Z,6.43
2023-05-07T21:58:31.207Z,6.07
2023-05-07T22:01:19.787Z,7.57
2023-05-07T22:04:08.467Z,12.27
2023-05-07T22:06:57.209Z,6.40
2023-05-07T22:09:45.806Z,7.07
2023-05-07T22:12:34.827Z,13.23
2023-05-07T22:15:24.778Z,7.20
2023-05-07T22:18:13.536Z,7.67
2023-05-07T22:21:02.329Z,6.50
2023-05-07T22:23:50.728Z,9.83
2023-05-07T22:26:39.569Z,7.63
2023-05-07T22:29:27.991Z,7.17
2023-05-07T22:32:18.179Z,6.90
2023-05-07T22:35:07.225Z,7.80
2023-05-07T22:37:55.705Z,6.13
2023-05-07T22:40:44.335Z,7.00
2023-05-07T22:43:32.992Z,6.67
2023-05-07T22:46:22.648Z,7.40
2023-05-07T22:49:12.488Z,8.60
2023-05-07T22:52:01.069Z,6.70
2023-05-07T22:54:49.735Z,6.37
2023-05-07T22:57:38.636Z,6.60
2023-05-07T23:00:27.509Z,6.40
2023-05-07T23:03:16.121Z,5.93
2023-05-07T23:06:06.647Z,6.30
2023-05-07T23:08:55.320Z,7.23
2023-05-07T23:11:44.192Z,5.80
2023-05-07T23:14:32.722Z,8.73
2023-05-07T23:17:21.228Z,6.33
2023-05-07T23:20:10.755Z,6.00
2023-05-07T23:23:00.940Z,5.97
2023-05-07T23:25:53.448Z,5.97
2023-05-07T23:28:42.417Z,6.70
2023-05-07T23:31:31.398Z,5.63
2023-05-07T23:34:24.184Z,7.40
2023-05-07T23:37:13.002Z,6.70
2023-05-07T23:40:02.856Z,6.00
2023-05-07T23:42:51.292Z,6.37
2023-05-07T23:45:40.208Z,6.90
2023-05-07T23:48:28.582Z,8.93
2023-05-07T23:51:17.172Z,8.93
2023-05-07T23:54:06.738Z,6.40
2023-05-07T23:56:56.682Z,6.23
2023-05-07T23:59:45.024Z,8.03
